Ridge Spring, South Carolina
Current Conditions -  °F | °C
As of 7:15 PM on Wednesday 22 Oct 2014 (Local Time) from KAIK Reporting Station
Clear Clear  
Wind Chill: 61°   Ceiling: Unl
Heat Index: 61°   Visibility: 10mi
Dew Point: 45°   Wind: 5mph
Humidity: 55%   Direction: 330°NNW
Pressure: 30.08"   Gusts: NA
Location:  33.85°N, 81.66°W
Report Text: KAIK 222315Z AUTO 33004KT 10SM CLR 16/07 A3008 RMK AO2 PNO
Loading
Personal Weather Stations






























Interactive Weather Map
Tropical Storm Tracking
New forecast layout! Learn more

10-Day Weather Forecast

Advertisements
Track Severe Weather on mobile